LELT weather

Lillo Airport
Lillo, Castilla-La Mancha, Spain

Public forecast

Using degrees Celsius for public forecast. Weather courtesy of forecast.io.

Closest aviation weather report (METAR) to Lillo Airport

Report is more than 6 hours old.

Closest report is Getafe Air Base, 39.3 nm (72.8 km) NNW. Retrieved 2019/11/20 20:00 UTC (6 hours ago):

LEGT 202000Z 00000KT 9000 -RA SCT007 BKN011 06/06 Q1009

Closest aviation forecast (TAF) to Lillo Airport

Forecast is more than 12 hours old.

Closest forecast is Getafe Air Base, 39.3 nm (72.8 km) NNW. Retrieved 2018/03/28 12:33 UTC (2 years ago):

TAF LEGT 281100Z 2812/2824 24010KT CAVOK PROB40 TEMPO 2814/2818 27015G25KT TEMPO 2820/2824 28008KT